Time;durP1;ratioP1;P1;durP2;ratioP2;P2;SDS_P1;SDS_P2;PMS_P1;PMS_P2;Temp;Humidity;BMP_temperature;BMP_pressure;BME280_temperature;BME280_humidity;BME280_pressure;Samples;Min_cycle;Max_cycle;Signal;HPM_P1;HPM_P2
2023/01/14 00:01:34;;;;;;;17.25;2.60;;;;;;;6.29;100.00;101487.66;5044626;28;20112;-92
2023/01/14 00:04:00;;;;;;;20.83;3.22;;;;;;;6.30;100.00;101494.53;5038239;28;20033;-92
2023/01/14 00:06:29;;;;;;;16.05;2.25;;;;;;;6.26;100.00;101487.66;5045006;28;20032;-92
2023/01/14 00:08:59;;;;;;;16.20;3.35;;;;;;;6.29;100.00;101493.66;5045154;28;20032;-92
2023/01/14 00:14:10;;;;;;;;;;;;;;;6.19;100.00;101511.66;5044100;28;20166;-90
2023/01/14 00:16:35;;;;;;;10.93;2.67;;;;;;;6.11;100.00;101509.03;5044344;28;19974;-92
2023/01/14 00:19:01;;;;;;;15.70;2.85;;;;;;;6.04;100.00;101504.72;5044218;28;20405;-91
2023/01/14 00:21:27;;;;;;;17.20;3.35;;;;;;;5.93;100.00;101502.09;5045245;28;20520;-92
2023/01/14 00:23:53;;;;;;;17.17;2.80;;;;;;;5.89;100.00;101507.19;5045577;28;20029;-92
2023/01/14 00:26:19;;;;;;;18.98;3.55;;;;;;;5.90;100.00;101512.34;5045151;28;20021;-92
2023/01/14 00:28:48;;;;;;;17.60;2.65;;;;;;;5.93;100.00;101514.09;5044722;28;20033;-92
2023/01/14 00:31:20;;;;;;;12.70;2.45;;;;;;;5.93;100.00;101522.66;5043499;28;20024;-92
2023/01/14 00:33:45;;;;;;;17.65;3.38;;;;;;;5.95;100.00;101517.50;5045358;28;20634;-92
2023/01/14 00:36:14;;;;;;;17.40;2.92;;;;;;;5.98;100.00;101514.97;5044979;28;20052;-93
2023/01/14 00:38:40;;;;;;;21.92;3.25;;;;;;;5.92;100.00;101500.34;5044260;28;20641;-92
2023/01/14 00:41:15;;;;;;;16.08;2.95;;;;;;;5.92;100.00;101502.94;5044842;28;20032;-92
2023/01/14 00:43:43;;;;;;;17.75;3.25;;;;;;;5.81;100.00;101503.66;5043059;28;20116;-91
2023/01/14 00:46:11;;;;;;;19.58;3.40;;;;;;;5.74;100.00;101512.19;5045093;28;21033;-92
2023/01/14 00:48:37;;;;;;;20.73;3.38;;;;;;;5.65;100.00;101507.00;5043142;28;20494;-92
2023/01/14 00:51:03;;;;;;;14.50;2.60;;;;;;;5.58;100.00;101503.53;5044776;28;20037;-92
2023/01/14 00:53:28;;;;;;;16.42;3.00;;;;;;;5.45;100.00;101510.28;5045172;28;20028;-92
2023/01/14 00:55:55;;;;;;;16.10;3.15;;;;;;;5.37;100.00;101504.22;5043280;28;20040;-93
2023/01/14 00:58:20;;;;;;;21.05;2.88;;;;;;;5.29;100.00;101505.00;5024736;28;20041;-92
2023/01/14 01:00:45;;;;;;;20.00;3.33;;;;;;;5.19;100.00;101511.75;5040981;28;20021;-92
2023/01/14 01:03:13;;;;;;;15.45;3.28;;;;;;;5.12;100.00;101520.25;5044655;28;20114;-92
2023/01/14 01:05:38;;;;;;;14.32;2.80;;;;;;;5.04;100.00;101519.34;5026155;28;20021;-92
2023/01/14 01:08:05;;;;;;;19.65;3.42;;;;;;;4.95;100.00;101519.25;5025750;28;20078;-93
2023/01/14 01:10:33;;;;;;;16.17;3.70;;;;;;;4.90;100.00;101520.91;5043228;28;20047;-92
2023/01/14 01:12:59;;;;;;;19.00;3.90;;;;;;;4.86;100.00;101522.56;5043371;28;20528;-92
2023/01/14 01:15:24;;;;;;;15.77;3.38;;;;;;;4.81;100.00;101526.81;5026290;28;20048;-91
2023/01/14 01:17:49;;;;;;;18.80;3.75;;;;;;;4.76;100.00;101533.59;5044627;28;20025;-92
2023/01/14 01:20:15;;;;;;;20.60;3.42;;;;;;;4.69;100.00;101526.69;5043017;28;20482;-92
2023/01/14 01:22:40;;;;;;;23.83;3.28;;;;;;;4.63;100.00;101519.78;5026136;28;20035;-92
2023/01/14 01:25:06;;;;;;;18.45;3.67;;;;;;;4.65;100.00;101524.91;5025490;28;20147;-92
2023/01/14 01:27:31;;;;;;;21.20;3.55;;;;;;;4.59;100.00;101524.84;5043083;28;20029;-92
2023/01/14 01:29:56;;;;;;;24.60;3.30;;;;;;;4.55;100.00;101518.81;5043305;28;20025;-93
2023/01/14 01:32:22;;;;;;;19.85;3.53;;;;;;;4.49;100.00;101516.19;5043980;28;20057;-92
2023/01/14 01:34:47;;;;;;;19.73;3.30;;;;;;;4.52;100.00;101516.19;5043809;28;20048;-92
2023/01/14 01:37:12;;;;;;;23.92;3.28;;;;;;;4.45;100.00;101511.84;5044202;28;20362;-92
2023/01/14 01:39:38;;;;;;;26.20;3.60;;;;;;;4.51;100.00;101517.03;5024473;28;20028;-93
2023/01/14 01:42:03;;;;;;;21.33;3.20;;;;;;;4.47;100.00;101512.72;5042975;28;20039;-92
2023/01/14 01:44:28;;;;;;;20.85;3.90;;;;;;;4.48;100.00;101514.47;5043362;28;20120;-92
2023/01/14 01:46:54;;;;;;;17.33;2.97;;;;;;;4.45;100.00;101504.13;5044823;28;20108;-92
2023/01/14 01:49:27;;;;;;;25.08;3.35;;;;;;;4.46;100.00;101516.13;5044208;28;20294;-92
2023/01/14 01:51:58;;;;;;;25.35;3.83;;;;;;;4.43;100.00;101505.84;5043500;28;20045;-92
2023/01/14 01:54:28;;;;;;;23.27;3.28;;;;;;;4.44;100.00;101514.38;5044013;28;20135;-92
2023/01/14 01:56:54;;;;;;;24.67;3.35;;;;;;;4.42;100.00;101510.97;5043521;28;20033;-92
2023/01/14 01:59:23;;;;;;;26.02;4.20;;;;;;;4.45;100.00;101508.41;5043758;28;20048;-92
2023/01/14 02:01:51;;;;;;;31.38;3.58;;;;;;;4.50;100.00;101514.47;5043313;28;20044;-92
2023/01/14 02:04:16;;;;;;;22.13;3.90;;;;;;;4.47;100.00;101514.44;5043402;28;20504;-91
2023/01/14 02:06:41;;;;;;;23.05;3.40;;;;;;;4.45;100.00;101501.56;5026380;28;20033;-92
2023/01/14 02:09:07;;;;;;;28.40;3.60;;;;;;;4.42;100.00;101491.28;5043916;28;20043;-92
2023/01/14 02:11:55;;;;;;;24.73;3.20;;;;;;;4.46;100.00;101498.16;5042965;28;20029;-92
2023/01/14 02:14:46;;;;;;;23.27;3.90;;;;;;;4.44;100.00;101488.72;5041829;28;20025;-93
2023/01/14 02:17:20;;;;;;;24.83;3.15;;;;;;;4.39;100.00;101475.84;5044051;28;20024;-93
2023/01/14 02:20:29;;;;;;;21.80;2.90;;;;;;;4.41;100.00;101479.28;5043698;28;20024;-93
2023/01/14 02:23:43;;;;;;;26.60;3.17;;;;;;;4.42;100.00;101467.31;5021879;28;20040;-92
2023/01/14 02:26:46;;;;;;;29.05;3.75;;;;;;;4.41;100.00;101469.03;5047258;28;20033;-92
2023/01/14 02:29:47;;;;;;;25.50;3.30;;;;;;;4.41;100.00;101445.94;5047093;28;20074;-91
2023/01/14 02:32:21;;;;;;;19.90;2.72;;;;;;;4.43;100.00;101454.53;4998290;28;20056;-92
2023/01/14 02:35:14;;;;;;;25.92;3.20;;;;;;;4.39;100.00;101445.03;5046887;28;20494;-91
2023/01/14 02:37:55;;;;;;;20.00;3.17;;;;;;;4.34;100.00;101446.72;5046917;28;21547;-90
2023/01/14 02:40:32;;;;;;;27.23;3.28;;;;;;;4.30;100.00;101435.53;5028505;28;20074;-92
2023/01/14 02:45:55;;;;;;;26.00;4.55;;;;;;;4.19;100.00;101429.41;5047299;28;20036;-92
2023/01/14 02:48:23;;;;;;;25.45;3.60;;;;;;;4.17;100.00;101422.53;5046870;28;20021;-92
2023/01/14 02:50:49;;;;;;;25.33;4.10;;;;;;;4.15;100.00;101425.13;5047038;28;20141;-92
2023/01/14 02:53:17;;;;;;;20.30;2.95;;;;;;;4.14;100.00;101414.81;5046039;28;20017;-92
2023/01/14 02:55:43;;;;;;;24.17;3.55;;;;;;;4.12;100.00;101431.91;5045775;28;20029;-91
2023/01/14 02:58:27;;;;;;;22.90;3.22;;;;;;;4.12;100.00;101424.19;5046737;28;20425;-92
2023/01/14 03:01:07;;;;;;;30.83;3.33;;;;;;;4.10;100.00;101416.47;5045227;28;20078;-92
2023/01/14 03:03:49;;;;;;;24.33;3.40;;;;;;;4.07;100.00;101413.03;5027090;28;20087;-93
2023/01/14 03:06:42;;;;;;;20.15;3.22;;;;;;;4.08;100.00;101418.19;5046518;28;20036;-92
2023/01/14 03:09:12;;;;;;;21.38;3.10;;;;;;;4.09;100.00;101413.91;5045929;28;20029;-93
2023/01/14 03:11:53;;;;;;;21.80;2.92;;;;;;;4.07;100.00;101401.06;5046263;28;20025;-92
2023/01/14 03:14:44;;;;;;;29.83;3.38;;;;;;;4.10;100.00;101400.22;5042767;28;20039;-92
2023/01/14 03:17:17;;;;;;;25.65;3.80;;;;;;;4.09;100.00;101398.53;5046791;28;20023;-92
2023/01/14 03:19:54;;;;;;;20.67;3.13;;;;;;;4.08;100.00;101389.09;5046599;28;20028;-93
2023/01/14 03:22:20;;;;;;;24.48;3.47;;;;;;;4.07;100.00;101379.69;5027325;28;20048;-93
2023/01/14 03:24:45;;;;;;;22.38;3.10;;;;;;;4.03;100.00;101377.91;5023021;28;20032;-93
2023/01/14 03:27:23;;;;;;;24.90;3.35;;;;;;;4.10;100.00;101374.56;5046736;28;20086;-92
2023/01/14 03:29:52;;;;;;;23.23;3.00;;;;;;;4.12;100.00;101375.47;5045857;28;20029;-92
2023/01/14 03:32:26;;;;;;;24.90;3.53;;;;;;;4.17;100.00;101376.34;5044193;28;20037;-92
2023/01/14 03:35:04;;;;;;;21.27;3.05;;;;;;;4.21;100.00;101375.56;5045219;28;20039;-92
2023/01/14 03:37:31;;;;;;;24.45;2.70;;;;;;;4.27;100.00;101363.66;5027699;28;20029;-92
2023/01/14 03:39:59;;;;;;;26.70;3.47;;;;;;;4.30;100.00;101360.25;5038924;28;20053;-93
2023/01/14 03:42:28;;;;;;;23.90;3.70;;;;;;;4.36;100.00;101355.22;5045380;28;20108;-92
2023/01/14 03:45:32;;;;;;;20.70;2.92;;;;;;;4.46;100.00;101356.13;5043577;28;20431;-92
2023/01/14 03:47:58;;;;;;;29.67;4.00;;;;;;;4.54;100.00;101355.38;5001702;28;20049;-92
2023/01/14 03:50:30;;;;;;;20.70;3.33;;;;;;;4.60;100.00;101362.25;5045306;28;20163;-92
2023/01/14 03:53:11;;;;;;;23.63;3.20;;;;;;;4.66;100.00;101352.91;5045382;28;20017;-92
2023/01/14 03:55:39;;;;;;;23.90;3.28;;;;;;;4.73;100.00;101351.25;5043225;28;20458;-91
2023/01/14 03:58:29;;;;;;;19.42;3.30;;;;;;;4.75;100.00;101345.28;5023038;28;20697;-91
2023/01/14 04:00:58;;;;;;;18.75;3.30;;;;;;;4.76;100.00;101347.00;5045830;28;20037;-93
2023/01/14 04:03:26;;;;;;;15.45;3.20;;;;;;;4.77;100.00;101332.47;5026557;28;20106;-92
2023/01/14 04:05:53;;;;;;;26.38;3.60;;;;;;;4.80;100.00;101331.59;5043060;28;20035;-92
2023/01/14 04:08:24;;;;;;;23.65;3.65;;;;;;;4.82;100.00;101330.78;5025840;28;20109;-92
2023/01/14 04:10:50;;;;;;;18.90;2.80;;;;;;;4.85;100.00;101319.66;5027260;28;20046;-92
2023/01/14 04:16:00;;;;;;;17.23;2.72;;;;;;;4.84;100.00;101310.25;5044423;28;20056;-92
2023/01/14 04:18:26;;;;;;;21.88;2.33;;;;;;;4.87;100.00;101312.81;5025986;28;20515;-92
2023/01/14 04:20:51;;;;;;;22.73;3.10;;;;;;;4.88;100.00;101305.13;5045003;28;21471;-92
2023/01/14 04:23:16;;;;;;;20.85;2.80;;;;;;;4.84;100.00;101284.56;5045283;28;20035;-92
2023/01/14 04:25:42;;;;;;;24.13;3.55;;;;;;;4.87;100.00;101300.84;5042886;28;20029;-93
2023/01/14 04:28:07;;;;;;;19.98;2.72;;;;;;;4.87;100.00;101292.28;5044609;28;20032;-92
2023/01/14 04:30:32;;;;;;;24.15;3.13;;;;;;;4.89;100.00;101294.03;5044859;28;20099;-92
2023/01/14 04:32:58;;;;;;;25.98;3.25;;;;;;;4.90;100.00;101295.75;5026429;28;20028;-92
2023/01/14 04:35:23;;;;;;;23.73;3.40;;;;;;;4.86;100.00;101278.56;5044445;28;20032;-92
2023/01/14 04:37:50;;;;;;;26.58;3.00;;;;;;;4.90;100.00;101276.91;5043325;28;20040;-91
2023/01/14 04:40:16;;;;;;;15.05;2.60;;;;;;;4.89;100.00;101267.47;5044948;28;20034;-92
2023/01/14 04:42:41;;;;;;;23.40;2.90;;;;;;;4.89;100.00;101276.03;5026452;28;20036;-92
2023/01/14 04:45:07;;;;;;;21.98;2.60;;;;;;;4.85;100.00;101261.44;5044132;28;20258;-92
2023/01/14 04:47:33;;;;;;;25.90;2.97;;;;;;;4.86;100.00;101252.91;5044014;28;20037;-93
2023/01/14 04:50:30;;;;;;;25.85;2.80;;;;;;;4.84;100.00;101253.75;5044554;28;20029;-93
2023/01/14 04:52:43;;;;;;;19.27;3.45;;;;;;;4.82;100.00;101255.44;5043879;28;20132;-92
2023/01/14 04:55:09;;;;;;;22.80;2.95;;;;;;;4.82;100.00;101258.88;5043874;28;20432;-92
2023/01/14 04:57:34;;;;;;;23.63;2.72;;;;;;;4.80;100.00;101259.69;5043595;28;20086;-92
2023/01/14 04:59:59;;;;;;;23.52;3.13;;;;;;;4.84;100.00;101258.91;5044824;28;20035;-92
2023/01/14 05:02:24;;;;;;;22.00;3.78;;;;;;;4.83;100.00;101246.91;5044626;28;20596;-92
2023/01/14 05:04:50;;;;;;;18.45;2.85;;;;;;;4.84;100.00;101240.91;5044189;28;20111;-92
2023/01/14 05:07:15;;;;;;;20.17;2.90;;;;;;;4.83;100.00;101234.06;5044068;28;20044;-92
2023/01/14 05:09:41;;;;;;;20.60;2.63;;;;;;;4.86;100.00;101237.50;5026257;28;20027;-93
2023/01/14 05:12:06;;;;;;;16.83;2.30;;;;;;;4.89;100.00;101236.66;5042441;28;20116;-93
2023/01/14 05:14:31;;;;;;;18.92;2.88;;;;;;;4.90;100.00;101230.66;5039275;28;20036;-93
2023/01/14 05:16:57;;;;;;;15.05;2.58;;;;;;;4.91;100.00;101219.56;5041827;28;20017;-92
2023/01/14 05:19:22;;;;;;;25.80;3.58;;;;;;;4.92;100.00;101219.53;5042150;28;20025;-92
2023/01/14 05:21:48;;;;;;;15.05;2.50;;;;;;;4.94;100.00;101209.28;5042896;28;20041;-92
2023/01/14 05:24:13;;;;;;;16.77;2.63;;;;;;;4.98;100.00;101211.84;5040690;28;20436;-92
2023/01/14 05:26:38;;;;;;;18.50;2.72;;;;;;;4.99;100.00;101205.00;5036040;28;20029;-93
2023/01/14 05:29:04;;;;;;;23.42;2.42;;;;;;;5.00;100.00;101202.47;5036401;28;20465;-92
2023/01/14 05:31:29;;;;;;;16.15;2.10;;;;;;;5.01;100.00;101193.91;5025241;28;20048;-92
2023/01/14 05:33:54;;;;;;;18.38;2.60;;;;;;;5.03;100.00;101196.50;5039726;28;20029;-92
2023/01/14 05:36:20;;;;;;;13.82;2.22;;;;;;;5.02;100.00;101171.66;5043211;28;20049;-92
2023/01/14 05:38:45;;;;;;;22.08;2.70;;;;;;;5.05;100.00;101169.09;5022717;28;20020;-93
2023/01/14 05:41:12;;;;;;;16.80;2.88;;;;;;;5.07;100.00;101165.66;5023347;28;20040;-93
2023/01/14 05:46:22;;;;;;;17.90;2.53;;;;;;;5.03;100.00;101139.97;5043921;28;20067;-93
2023/01/14 05:48:47;;;;;;;18.13;2.70;;;;;;;5.05;100.00;101138.28;5044173;28;20548;-93
2023/01/14 05:51:12;;;;;;;21.95;2.90;;;;;;;5.07;100.00;101126.28;5023708;28;20055;-93
2023/01/14 05:53:39;;;;;;;22.70;2.65;;;;;;;5.07;100.00;101119.44;5042728;28;20440;-93
2023/01/14 05:56:04;;;;;;;13.73;2.58;;;;;;;5.12;100.00;101120.28;5043174;28;20025;-92
2023/01/14 05:58:30;;;;;;;15.55;2.40;;;;;;;5.12;100.00;101101.44;5044626;28;20044;-92
2023/01/14 06:06:39;;;;;;;13.57;2.17;;;;;;;5.21;100.00;101090.34;5046803;28;20520;-92
2023/01/14 06:09:08;;;;;;;18.25;2.80;;;;;;;5.25;100.00;101081.81;5046700;28;20217;-93
2023/01/14 06:11:33;;;;;;;18.35;3.10;;;;;;;5.26;100.00;101081.78;5046839;28;20116;-92
2023/01/14 06:14:00;;;;;;;18.98;2.45;;;;;;;5.27;100.00;101078.34;5044352;28;20116;-92
2023/01/14 06:16:27;;;;;;;16.27;2.83;;;;;;;5.28;100.00;101080.06;5047024;28;20048;-92
2023/01/14 06:18:54;;;;;;;15.93;2.53;;;;;;;5.31;100.00;101074.09;5046837;28;20093;-92
2023/01/14 06:21:23;;;;;;;18.63;2.70;;;;;;;5.32;100.00;101070.69;5044626;28;20508;-93
2023/01/14 06:23:49;;;;;;;19.80;2.70;;;;;;;5.32;100.00;101065.53;5046208;28;20040;-93
2023/01/14 06:26:19;;;;;;;19.92;2.45;;;;;;;5.36;100.00;101047.53;5027800;28;20025;-92
2023/01/14 06:28:45;;;;;;;18.23;2.47;;;;;;;5.41;100.00;101050.09;5046717;28;20036;-93
2023/01/14 06:31:13;;;;;;;15.93;3.03;;;;;;;5.44;100.00;101050.13;5046095;28;20028;-93
2023/01/14 06:33:39;;;;;;;17.63;2.35;;;;;;;5.44;100.00;101044.97;5041789;28;20033;-93
2023/01/14 06:36:06;;;;;;;13.57;2.28;;;;;;;5.42;100.00;101026.97;5044444;28;20066;-93
2023/01/14 06:38:31;;;;;;;13.88;2.03;;;;;;;5.44;100.00;101025.28;5043206;28;20057;-93
2023/01/14 06:41:00;;;;;;;19.10;2.47;;;;;;;5.42;100.00;101010.69;5044957;28;20108;-93
2023/01/14 06:43:26;;;;;;;19.83;2.30;;;;;;;5.39;100.00;101008.97;5045168;28;20778;-93
2023/01/14 06:45:53;;;;;;;10.18;2.47;;;;;;;5.41;100.00;101006.41;5042448;28;20793;-93
2023/01/14 06:48:18;;;;;;;16.83;2.38;;;;;;;5.38;100.00;100993.56;5044641;28;20107;-94
2023/01/14 06:50:44;;;;;;;15.52;2.30;;;;;;;5.40;100.00;100997.84;5045688;28;20045;-93
2023/01/14 06:53:09;;;;;;;21.48;2.83;;;;;;;5.39;100.00;100985.84;5044119;28;20017;-93
2023/01/14 06:55:34;;;;;;;17.50;2.80;;;;;;;5.40;100.00;100979.84;5042172;28;20043;-94
2023/01/14 06:58:00;;;;;;;17.23;3.03;;;;;;;5.37;100.00;100967.00;5026678;28;20206;-94
2023/01/14 07:00:26;;;;;;;14.27;2.15;;;;;;;5.38;100.00;100971.28;5045714;28;20013;-93
2023/01/14 07:02:51;;;;;;;16.25;2.53;;;;;;;5.36;100.00;100965.28;5045945;28;20029;-93
2023/01/14 07:05:16;;;;;;;13.23;2.45;;;;;;;5.35;100.00;100958.44;5042708;28;20365;-93
2023/01/14 07:07:47;;;;;;;21.00;2.75;;;;;;;5.38;100.00;100960.16;5045149;28;20028;-93
2023/01/14 07:10:12;;;;;;;12.10;2.30;;;;;;;5.36;100.00;100944.72;5045369;28;20056;-92
2023/01/14 07:12:37;;;;;;;20.70;2.70;;;;;;;5.38;100.00;100940.47;5029019;28;20450;-93
2023/01/14 07:15:03;;;;;;;19.73;2.60;;;;;;;5.39;100.00;100934.44;5045871;28;20074;-92
2023/01/14 07:17:28;;;;;;;13.30;2.30;;;;;;;5.40;100.00;100928.44;5044883;28;20036;-92
2023/01/14 07:19:54;;;;;;;13.43;2.38;;;;;;;5.38;100.00;100925.03;5026808;28;20013;-94
2023/01/14 07:22:19;;;;;;;14.82;2.50;;;;;;;5.38;100.00;100913.91;5044652;28;20733;-95
2023/01/14 07:24:44;;;;;;;18.60;3.08;;;;;;;5.37;100.00;100900.19;5042617;28;20043;-93
2023/01/14 07:27:09;;;;;;;21.55;2.88;;;;;;;5.40;100.00;100892.44;5041018;28;20021;-94
2023/01/14 07:29:35;;;;;;;16.30;2.63;;;;;;;5.40;100.00;100886.44;5040579;28;20410;-94
2023/01/14 07:32:01;;;;;;;13.80;2.20;;;;;;;5.40;100.00;100878.75;5022736;28;20031;-95
2023/01/14 07:34:26;;;;;;;15.27;2.65;;;;;;;5.42;100.00;100880.47;5025570;28;20032;-93
2023/01/14 07:36:52;;;;;;;13.60;2.42;;;;;;;5.41;100.00;100873.59;5022484;28;20115;-92
2023/01/14 07:39:17;;;;;;;14.35;2.60;;;;;;;5.43;100.00;100855.63;5022570;28;20045;-93
2023/01/14 07:41:43;;;;;;;14.15;2.65;;;;;;;5.45;100.00;100859.03;5024268;28;20813;-93
2023/01/14 07:44:08;;;;;;;7.28;2.50;;;;;;;5.47;100.00;100853.03;5039215;28;20793;-93
2023/01/14 07:46:33;;;;;;;12.93;2.53;;;;;;;5.48;100.00;100857.31;5022344;28;20032;-93
2023/01/14 07:48:59;;;;;;;11.35;2.40;;;;;;;5.47;100.00;100840.16;5024704;28;20078;-93
2023/01/14 07:51:25;;;;;;;15.52;2.55;;;;;;;5.51;100.00;100844.47;5045219;28;20500;-93
2023/01/14 07:53:50;;;;;;;18.00;3.22;;;;;;;5.52;100.00;100827.31;5027116;28;20515;-94
2023/01/14 07:56:16;;;;;;;11.18;3.00;;;;;;;5.55;100.00;100822.16;5045602;28;20642;-94
2023/01/14 07:58:42;;;;;;;11.85;2.67;;;;;;;5.55;100.00;100806.72;5025619;28;20107;-92
2023/01/14 08:01:09;;;;;;;9.77;2.50;;;;;;;5.56;100.00;100795.59;5026685;28;20028;-94
2023/01/14 08:03:36;;;;;;;11.82;3.30;;;;;;;5.61;100.00;100785.28;5044072;28;20346;-94
2023/01/14 08:06:04;;;;;;;13.85;2.83;;;;;;;5.60;100.00;100778.41;5045054;28;20036;-93
2023/01/14 08:08:29;;;;;;;9.48;2.70;;;;;;;5.62;100.00;100771.56;5044104;28;20435;-93
2023/01/14 08:10:58;;;;;;;9.13;2.70;;;;;;;5.66;100.00;100753.56;5026198;28;20111;-94
2023/01/14 08:13:24;;;;;;;13.52;3.17;;;;;;;5.66;100.00;100755.28;5044758;28;20028;-94
2023/01/14 08:15:59;;;;;;;13.70;3.20;;;;;;;5.68;100.00;100738.09;5027825;28;20025;-94
2023/01/14 08:18:25;;;;;;;12.75;3.05;;;;;;;5.72;100.00;100740.66;5042588;28;20025;-93
2023/01/14 08:21:03;;;;;;;10.85;3.10;;;;;;;5.76;100.00;100731.19;5044304;28;20028;-93
2023/01/14 08:23:29;;;;;;;12.35;2.92;;;;;;;5.79;100.00;100720.91;5043360;28;20345;-91
2023/01/14 08:25:59;;;;;;;14.10;2.75;;;;;;;5.81;100.00;100721.72;5045029;28;20562;-93
2023/01/14 08:28:25;;;;;;;11.85;2.90;;;;;;;5.82;100.00;100708.88;5042341;28;20121;-94
2023/01/14 08:31:00;;;;;;;10.40;2.58;;;;;;;5.84;100.00;100689.16;5044351;28;20166;-94
2023/01/14 08:33:25;;;;;;;12.55;3.08;;;;;;;5.85;100.00;100690.84;5043918;28;20405;-93
2023/01/14 08:35:51;;;;;;;8.85;2.38;;;;;;;5.88;100.00;100698.56;5043922;28;20508;-93
2023/01/14 08:38:16;;;;;;;10.13;2.47;;;;;;;5.89;100.00;100659.13;5044466;28;20020;-93
2023/01/14 08:40:41;;;;;;;9.65;2.40;;;;;;;5.91;100.00;100662.56;5025034;28;20231;-94
2023/01/14 08:43:06;;;;;;;9.23;2.45;;;;;;;5.93;100.00;100662.53;5044509;28;20543;-93
2023/01/14 08:45:32;;;;;;;9.35;2.47;;;;;;;5.96;100.00;100652.22;5025487;28;20047;-94
2023/01/14 08:47:58;;;;;;;7.35;2.22;;;;;;;5.99;100.00;100644.47;5038439;28;20028;-94
2023/01/14 08:50:23;;;;;;;10.20;2.53;;;;;;;6.05;100.00;100635.84;5024664;28;20493;-93
2023/01/14 08:52:57;;;;;;;7.07;2.28;;;;;;;6.07;100.00;100635.00;5045791;28;20029;-94
2023/01/14 08:55:23;;;;;;;11.70;2.50;;;;;;;6.11;100.00;100613.50;5026323;28;20078;-94
2023/01/14 08:57:48;;;;;;;8.30;2.30;;;;;;;6.14;100.00;100602.34;5044984;28;20029;-92
2023/01/14 09:00:14;;;;;;;7.55;2.20;;;;;;;6.16;100.00;100600.56;5024002;28;20528;-93
2023/01/14 09:02:40;;;;;;;5.25;2.20;;;;;;;6.17;100.00;100592.84;5040850;28;21316;-93
2023/01/14 09:05:05;;;;;;;8.23;2.15;;;;;;;6.20;100.00;100582.53;5044985;28;20038;-94
2023/01/14 09:18:37;;;;;;;10.57;2.60;;;;;;;6.31;100.00;100536.09;5043861;28;20127;-95
2023/01/14 09:21:04;;;;;;;7.38;2.20;;;;;;;6.34;100.00;100534.34;5037403;28;20040;-94
2023/01/14 09:23:29;;;;;;;6.63;2.10;;;;;;;6.31;100.00;100531.78;5044888;28;20083;-94
2023/01/14 09:25:55;;;;;;;9.10;2.30;;;;;;;6.35;100.00;100538.59;5023619;28;20028;-94
2023/01/14 09:28:23;;;;;;;7.03;2.10;;;;;;;6.34;100.00;100518.91;5025605;28;20389;-94
2023/01/14 09:30:48;;;;;;;8.13;2.13;;;;;;;6.44;100.00;100529.06;5026042;28;20032;-93
2023/01/14 09:33:13;;;;;;;6.40;1.90;;;;;;;6.50;100.00;100513.53;5030138;28;20209;-92
2023/01/14 09:35:39;;;;;;;7.55;1.90;;;;;;;6.53;100.00;100523.81;5046527;28;20032;-92
2023/01/14 09:38:04;;;;;;;7.15;2.03;;;;;;;6.49;100.00;100504.09;5047703;28;20057;-92
2023/01/14 09:40:30;;;;;;;5.22;1.95;;;;;;;6.58;100.00;100499.72;5042076;28;20086;-92
2023/01/14 09:42:57;;;;;;;7.78;1.77;;;;;;;6.58;100.00;100486.84;5047337;28;20253;-92
2023/01/14 09:45:30;;;;;;;4.35;1.90;;;;;;;6.63;100.00;100479.03;5047386;28;20056;-92
2023/01/14 09:48:00;;;;;;;7.93;2.03;;;;;;;6.63;100.00;100482.47;5029251;28;20025;-90
2023/01/14 09:51:10;;;;;;;6.82;2.05;;;;;;;6.67;100.00;100462.69;5045435;28;20048;-90
2023/01/14 09:53:54;;;;;;;4.93;1.70;;;;;;;6.71;100.00;100461.75;5046803;28;20033;-90
2023/01/14 09:56:25;;;;;;;7.80;2.10;;;;;;;6.72;100.00;100455.75;5046956;28;20025;-90
2023/01/14 09:59:07;;;;;;;6.78;2.03;;;;;;;6.73;100.00;100455.72;5029397;28;20608;-90
2023/01/14 10:01:47;;;;;;;7.68;2.10;;;;;;;6.76;100.00;100439.34;5047468;28;20056;-93
2023/01/14 10:04:48;;;;;;;10.45;1.73;;;;;;;6.79;100.00;100429.03;5046136;28;20037;-90
2023/01/14 10:07:16;;;;;;;9.77;2.03;;;;;;;6.83;100.00;100437.53;5042833;28;20021;-89
2023/01/14 10:09:50;;;;;;;7.95;1.80;;;;;;;6.86;100.00;100424.63;5044310;28;20021;-90
2023/01/14 10:12:22;;;;;;;8.05;2.00;;;;;;;6.88;100.00;100410.88;5029292;28;20082;-92
2023/01/14 10:15:15;;;;;;;12.75;2.50;;;;;;;6.88;100.00;100397.13;5046243;28;20024;-90
2023/01/14 10:17:44;;;;;;;9.35;2.00;;;;;;;6.91;100.00;100374.72;5047690;28;20404;-91
2023/01/14 10:20:15;;;;;;;8.45;1.98;;;;;;;6.95;100.00;100378.13;5029164;28;20025;-91
2023/01/14 10:22:47;;;;;;;7.68;2.45;;;;;;;6.98;100.00;100375.47;5047172;28;20036;-90
2023/01/14 10:25:21;;;;;;;8.68;2.10;;;;;;;7.01;100.00;100372.84;5045210;28;20024;-91
2023/01/14 10:27:55;;;;;;;9.90;2.05;;;;;;;7.03;100.00;100350.47;5046651;28;20099;-90
2023/01/14 10:30:32;;;;;;;5.55;1.95;;;;;;;7.06;100.00;100335.81;5028456;28;20057;-91
2023/01/14 10:33:02;;;;;;;4.90;2.00;;;;;;;7.08;100.00;100328.06;5045018;28;20116;-92
2023/01/14 10:35:36;;;;;;;8.40;2.20;;;;;;;7.12;100.00;100327.97;5043736;28;20168;-93
2023/01/14 10:38:02;;;;;;;8.40;1.92;;;;;;;7.17;100.00;100320.16;5026193;28;20035;-92
2023/01/14 10:40:29;;;;;;;6.22;2.03;;;;;;;7.16;100.00;100309.91;5027482;28;20021;-92
2023/01/14 10:42:57;;;;;;;8.48;2.17;;;;;;;7.23;100.00;100316.66;5040376;28;20119;-93
2023/01/14 10:45:22;;;;;;;6.50;2.00;;;;;;;7.26;100.00;100311.41;5041851;28;20250;-92
2023/01/14 10:47:53;;;;;;;8.18;2.20;;;;;;;7.30;100.00;100282.97;5041860;28;20227;-92
2023/01/14 10:50:21;;;;;;;7.57;2.40;;;;;;;7.37;100.00;100286.31;5042438;28;20424;-91
2023/01/14 10:52:47;;;;;;;9.90;2.00;;;;;;;7.38;100.00;100275.09;5046037;28;20029;-92
2023/01/14 10:55:18;;;;;;;6.07;1.88;;;;;;;7.42;100.00;100269.00;5028318;28;20389;-91
2023/01/14 10:58:05;;;;;;;8.45;2.10;;;;;;;7.46;100.00;100253.44;5046470;28;20025;-92
2023/01/14 11:00:36;;;;;;;7.65;1.92;;;;;;;7.49;100.00;100255.97;5046404;28;20048;-91
2023/01/14 11:03:05;;;;;;;7.38;1.85;;;;;;;7.49;100.00;100243.06;5046290;28;20025;-93
2023/01/14 11:05:34;;;;;;;5.72;1.60;;;;;;;7.53;100.00;100234.38;5028062;28;20177;-92
2023/01/14 11:08:20;;;;;;;5.72;1.75;;;;;;;7.56;100.00;100223.16;5045413;28;20090;-92
2023/01/14 11:10:53;;;;;;;7.22;1.85;;;;;;;7.62;100.00;100210.13;5044240;28;20490;-92
2023/01/14 11:13:31;;;;;;;4.03;1.60;;;;;;;7.64;100.00;100185.16;5046274;28;20385;-92
2023/01/14 11:15:57;;;;;;;4.05;1.52;;;;;;;7.67;100.00;100187.66;5045806;28;20107;-91
2023/01/14 11:18:33;;;;;;;5.28;1.60;;;;;;;7.69;100.00;100187.63;5046149;28;20463;-92
2023/01/14 11:21:15;;;;;;;4.32;1.83;;;;;;;7.70;100.00;100179.84;5044055;28;20021;-91
2023/01/14 11:23:52;;;;;;;4.30;1.80;;;;;;;7.73;100.00;100174.59;5027658;28;20497;-92
2023/01/14 11:26:26;;;;;;;4.47;1.50;;;;;;;7.77;100.00;100168.50;5045752;28;20036;-92
2023/01/14 11:28:52;;;;;;;;;;;;;;;7.79;100.00;100166.72;5028020;28;20029;-91
2023/01/14 11:31:30;;;;;;;4.75;1.23;;;;;;;7.81;100.00;100152.06;5026940;28;20354;-92
2023/01/14 11:33:56;;;;;;;4.03;1.50;;;;;;;7.84;100.00;100146.84;5044108;28;20553;-91
2023/01/14 11:36:24;;;;;;;6.03;1.92;;;;;;;7.83;100.00;100145.16;5044762;28;20025;-90
2023/01/14 11:38:51;;;;;;;2.75;1.80;;;;;;;7.83;100.00;100121.94;5045531;28;20040;-93
2023/01/14 11:41:39;;;;;;;4.95;1.70;;;;;;;7.91;100.00;100124.31;5045974;28;20025;-91
2023/01/14 11:44:18;;;;;;;5.88;1.67;;;;;;;7.91;100.00;100126.91;5045373;28;20398;-93
2023/01/14 11:46:45;;;;;;;4.63;1.60;;;;;;;7.96;100.00;100119.91;5043363;28;20509;-92
2023/01/14 11:49:21;;;;;;;2.53;1.70;;;;;;;8.02;100.00;100118.88;5045174;28;20064;-93
2023/01/14 11:51:57;;;;;;;5.53;1.80;;;;;;;8.00;100.00;100113.75;5045220;28;20049;-93
2023/01/14 11:54:23;;;;;;;5.60;2.17;;;;;;;8.00;100.00;100110.31;5025595;28;20132;-92
2023/01/14 11:56:48;;;;;;;4.88;1.85;;;;;;;8.03;100.00;100116.28;5044299;28;20043;-93
2023/01/14 11:59:31;;;;;;;6.97;1.77;;;;;;;7.99;100.00;100108.63;5027073;28;20031;-93